createdAt,value
2019-05-26T00:00:45.042Z,8.95
2019-05-26T00:01:45.097Z,8.97
2019-05-26T00:02:44.981Z,8.97
2019-05-26T00:03:44.970Z,8.99
2019-05-26T00:04:44.920Z,9.00
2019-05-26T00:05:44.887Z,8.85
2019-05-26T00:06:44.856Z,9.00
2019-05-26T00:07:44.825Z,8.89
2019-05-26T00:08:44.821Z,9.08
2019-05-26T00:09:44.771Z,8.99
2019-05-26T00:10:44.787Z,8.97
2019-05-26T00:11:44.702Z,8.95
2019-05-26T00:12:44.780Z,8.95
2019-05-26T00:13:44.667Z,8.97
2019-05-26T00:14:44.611Z,8.94
2019-05-26T00:15:44.650Z,8.84
2019-05-26T00:16:44.549Z,8.88
2019-05-26T00:17:44.524Z,8.71
2019-05-26T00:18:44.514Z,8.81
2019-05-26T00:19:44.459Z,8.76
2019-05-26T00:20:44.488Z,8.69
2019-05-26T00:21:44.398Z,8.74
2019-05-26T00:22:44.365Z,8.63
2019-05-26T00:23:44.363Z,8.63
2019-05-26T00:24:44.305Z,8.71
2019-05-26T00:25:44.293Z,8.71
2019-05-26T00:26:44.239Z,8.67
2019-05-26T00:27:44.228Z,8.67
2019-05-26T00:28:44.226Z,8.64
2019-05-26T00:29:44.154Z,8.64
2019-05-26T00:30:44.123Z,8.63
2019-05-26T00:31:44.096Z,8.66
2019-05-26T00:32:44.062Z,8.64
2019-05-26T00:33:44.060Z,8.58
2019-05-26T00:34:43.996Z,8.56
2019-05-26T00:35:43.967Z,8.63
2019-05-26T00:36:43.935Z,8.51
2019-05-26T00:37:49.675Z,8.49
2019-05-26T00:38:43.941Z,8.56
2019-05-26T00:39:43.851Z,8.49
2019-05-26T00:40:43.820Z,8.46
2019-05-26T00:41:43.792Z,8.41
2019-05-26T00:42:43.757Z,8.49
2019-05-26T00:43:43.750Z,8.46
2019-05-26T00:44:43.693Z,8.33
2019-05-26T00:45:43.660Z,8.26
2019-05-26T00:46:43.630Z,8.31
2019-05-26T00:47:43.599Z,8.34
2019-05-26T00:48:43.716Z,8.28
2019-05-26T00:49:43.539Z,8.20
2019-05-26T00:50:43.513Z,8.23
2019-05-26T00:51:43.473Z,8.23
2019-05-26T00:52:43.445Z,8.09
2019-05-26T00:53:43.435Z,8.10
2019-05-26T00:54:43.385Z,8.00
2019-05-26T00:55:43.349Z,7.94
2019-05-26T00:56:43.326Z,7.94
2019-05-26T00:57:43.289Z,7.87
2019-05-26T00:58:43.280Z,7.88
2019-05-26T00:59:43.225Z,7.83
2019-05-26T01:00:43.193Z,7.73
2019-05-26T01:01:43.168Z,7.76
2019-05-26T01:02:43.130Z,7.83
2019-05-26T01:03:43.129Z,7.79
2019-05-26T01:04:43.070Z,7.79
2019-05-26T01:05:43.053Z,7.75
2019-05-26T01:06:43.016Z,7.69
2019-05-26T01:07:42.979Z,7.69
2019-05-26T01:08:42.947Z,7.63
2019-05-26T01:09:42.938Z,7.61
2019-05-26T01:10:42.881Z,7.63
2019-05-26T01:11:42.850Z,7.57
2019-05-26T01:12:42.825Z,7.58
2019-05-26T01:13:42.798Z,7.58
2019-05-26T01:14:42.790Z,7.54
2019-05-26T01:15:42.733Z,7.60
2019-05-26T01:16:42.700Z,7.58
2019-05-26T01:17:42.669Z,7.54
2019-05-26T01:18:42.635Z,7.43
2019-05-26T01:19:42.628Z,7.50
2019-05-26T01:20:42.570Z,7.45
2019-05-26T01:21:42.535Z,7.42
2019-05-26T01:22:42.507Z,7.47
2019-05-26T01:23:42.479Z,7.48
2019-05-26T01:24:42.468Z,7.36
2019-05-26T01:25:42.496Z,7.40
2019-05-26T01:26:42.411Z,7.40
2019-05-26T01:27:42.353Z,7.32
2019-05-26T01:28:42.321Z,7.35
2019-05-26T01:29:42.313Z,7.24
2019-05-26T01:30:42.255Z,7.29
2019-05-26T01:31:42.234Z,7.21
2019-05-26T01:32:42.239Z,7.25
2019-05-26T01:33:42.166Z,7.24
2019-05-26T01:34:42.156Z,7.28
2019-05-26T01:35:42.099Z,7.15
2019-05-26T01:36:42.068Z,7.21
2019-05-26T01:37:42.032Z,7.17
2019-05-26T01:38:42.002Z,7.14
2019-05-26T01:39:41.993Z,7.15
2019-05-26T01:40:41.941Z,7.13
2019-05-26T01:41:41.910Z,7.11
2019-05-26T01:42:41.916Z,7.17
2019-05-26T01:43:41.857Z,7.14
2019-05-26T01:44:41.839Z,7.15
2019-05-26T01:45:41.783Z,7.14
2019-05-26T01:46:41.750Z,7.13
2019-05-26T01:47:41.724Z,7.14
2019-05-26T01:48:41.688Z,7.13
2019-05-26T01:49:41.761Z,7.06
2019-05-26T01:50:41.620Z,7.11
2019-05-26T01:51:41.611Z,7.14
2019-05-26T01:52:41.593Z,7.15
2019-05-26T01:53:41.527Z,7.07
2019-05-26T01:54:41.519Z,7.18
2019-05-26T01:55:41.469Z,7.07
2019-05-26T01:56:41.434Z,7.14
2019-05-26T01:57:41.401Z,7.11
2019-05-26T01:58:41.376Z,7.10
2019-05-26T01:59:41.366Z,7.03
2019-05-26T02:00:41.324Z,7.05
2019-05-26T02:01:41.284Z,7.03
2019-05-26T02:02:41.306Z,7.07
2019-05-26T02:03:41.215Z,7.02
2019-05-26T02:04:41.208Z,7.05
2019-05-26T02:05:41.149Z,7.07
2019-05-26T02:06:41.118Z,7.03
2019-05-26T02:07:41.089Z,7.06
2019-05-26T02:08:41.053Z,6.97
2019-05-26T02:09:41.050Z,6.93
2019-05-26T02:10:41.003Z,6.93
2019-05-26T02:11:40.967Z,6.97
2019-05-26T02:12:40.926Z,6.93
2019-05-26T02:13:40.895Z,6.97
2019-05-26T02:14:40.895Z,6.92
2019-05-26T02:15:40.836Z,6.97
2019-05-26T02:16:40.808Z,6.89
2019-05-26T02:17:40.769Z,6.97
2019-05-26T02:18:40.732Z,6.96
2019-05-26T02:19:40.733Z,6.96
2019-05-26T02:20:40.670Z,6.95
2019-05-26T02:21:40.637Z,6.96
2019-05-26T02:22:40.610Z,6.97
2019-05-26T02:23:40.578Z,7.00
2019-05-26T02:24:40.550Z,6.95
2019-05-26T02:25:40.537Z,6.93
2019-05-26T02:26:40.483Z,6.97
2019-05-26T02:27:40.453Z,6.93
2019-05-26T02:28:40.419Z,6.97
2019-05-26T02:29:40.397Z,6.96
2019-05-26T02:30:40.386Z,6.92
2019-05-26T02:31:40.336Z,6.88
2019-05-26T02:32:40.304Z,6.99
2019-05-26T02:33:40.275Z,6.92
2019-05-26T02:34:40.231Z,6.93
2019-05-26T02:35:40.222Z,6.96
2019-05-26T02:36:40.267Z,6.95
2019-05-26T02:37:40.136Z,6.93
2019-05-26T02:39:00.117Z,6.88
2019-05-26T02:39:40.070Z,6.81
2019-05-26T02:40:40.067Z,6.92
2019-05-26T02:41:40.007Z,6.82
2019-05-26T02:42:40.045Z,6.81
2019-05-26T02:43:39.942Z,6.92
2019-05-26T02:44:39.911Z,6.92
2019-05-26T02:45:39.902Z,6.92
2019-05-26T02:46:39.844Z,7.06
2019-05-26T02:47:39.813Z,7.05
2019-05-26T02:48:39.788Z,6.96
2019-05-26T02:49:39.752Z,7.05
2019-05-26T02:50:39.744Z,6.93
2019-05-26T02:51:39.688Z,6.96
2019-05-26T02:52:39.656Z,7.07
2019-05-26T02:53:39.632Z,7.02
2019-05-26T02:54:39.591Z,7.03
2019-05-26T02:55:39.595Z,7.03
2019-05-26T02:56:39.539Z,6.99
2019-05-26T02:57:39.518Z,6.97
2019-05-26T02:58:39.465Z,7.00
2019-05-26T02:59:39.462Z,7.03
2019-05-26T03:00:39.516Z,7.06
2019-05-26T03:01:58.325Z,6.97
2019-05-26T03:02:39.339Z,7.06
2019-05-26T03:03:39.308Z,6.99
2019-05-26T03:04:39.275Z,6.97
2019-05-26T03:05:39.267Z,7.00
2019-05-26T03:06:39.209Z,7.03
2019-05-26T03:07:39.186Z,7.11
2019-05-26T03:08:39.152Z,7.11
2019-05-26T03:09:39.136Z,7.07
2019-05-26T03:10:39.121Z,7.13
2019-05-26T03:11:39.060Z,7.17
2019-05-26T03:12:39.021Z,7.15
2019-05-26T03:13:38.986Z,7.13
2019-05-26T03:14:38.953Z,7.23
2019-05-26T03:15:38.955Z,7.23
2019-05-26T03:16:38.896Z,7.31
2019-05-26T03:17:38.864Z,7.29
2019-05-26T03:18:38.828Z,7.24
2019-05-26T03:19:38.801Z,7.33
2019-05-26T03:20:38.797Z,7.36
2019-05-26T03:21:38.740Z,7.36
2019-05-26T03:22:38.723Z,7.45
2019-05-26T03:23:38.706Z,7.51
2019-05-26T03:24:38.644Z,7.48
2019-05-26T03:25:38.622Z,7.50
2019-05-26T03:26:38.605Z,7.51
2019-05-26T03:27:38.548Z,7.54
2019-05-26T03:28:38.516Z,7.58
2019-05-26T03:29:38.485Z,7.58
2019-05-26T03:30:38.478Z,7.63
2019-05-26T03:31:38.586Z,7.70
2019-05-26T03:32:38.387Z,7.53
2019-05-26T03:33:38.365Z,7.72
2019-05-26T03:34:38.387Z,7.73
2019-05-26T03:35:38.295Z,7.70
2019-05-26T03:36:38.289Z,7.76
2019-05-26T03:37:38.237Z,7.76
2019-05-26T03:38:38.212Z,7.73
2019-05-26T03:39:45.136Z,7.88
2019-05-26T03:40:38.151Z,7.98
2019-05-26T03:41:38.133Z,7.85
2019-05-26T03:42:38.162Z,7.91
2019-05-26T03:43:38.050Z,8.05
2019-05-26T03:44:38.011Z,8.01
2019-05-26T03:45:37.988Z,8.01
2019-05-26T03:46:37.980Z,8.10
2019-05-26T03:47:37.942Z,8.12
2019-05-26T03:48:37.894Z,8.12
2019-05-26T03:49:37.857Z,8.18
2019-05-26T03:50:37.833Z,8.30
2019-05-26T03:51:37.821Z,8.34
2019-05-26T03:52:37.772Z,8.30
2019-05-26T03:53:37.741Z,8.34
2019-05-26T03:54:37.703Z,8.42
2019-05-26T03:55:37.790Z,8.53
2019-05-26T03:56:37.674Z,8.51
2019-05-26T03:57:37.620Z,8.53
2019-05-26T03:58:37.580Z,8.66
2019-05-26T03:59:37.552Z,8.76
2019-05-26T04:00:37.518Z,8.84
2019-05-26T04:01:37.512Z,8.94
2019-05-26T04:02:37.459Z,8.88
2019-05-26T04:03:37.427Z,9.06
2019-05-26T04:04:37.398Z,8.94
2019-05-26T04:05:37.374Z,9.03
2019-05-26T04:06:37.365Z,9.00
2019-05-26T04:07:37.307Z,9.00
2019-05-26T04:08:37.276Z,9.13
2019-05-26T04:09:37.243Z,9.11
2019-05-26T04:10:37.213Z,9.22
2019-05-26T04:11:37.221Z,9.13
2019-05-26T04:12:37.146Z,9.25
2019-05-26T04:13:37.115Z,9.25
2019-05-26T04:14:37.087Z,9.26
2019-05-26T04:15:37.088Z,9.40
2019-05-26T04:16:37.057Z,9.41
2019-05-26T04:17:37.020Z,9.44
2019-05-26T04:18:36.965Z,9.56
2019-05-26T04:19:36.932Z,9.59
2019-05-26T04:20:36.903Z,9.66
2019-05-26T04:21:36.873Z,9.64
2019-05-26T04:22:36.871Z,9.76
2019-05-26T04:23:36.816Z,9.76
2019-05-26T04:24:36.781Z,9.87
2019-05-26T04:25:36.755Z,9.97
2019-05-26T04:26:36.731Z,10.04
2019-05-26T04:27:36.733Z,10.04
2019-05-26T04:28:36.664Z,10.15
2019-05-26T04:29:36.636Z,10.22
2019-05-26T04:30:36.607Z,10.30
2019-05-26T04:31:36.574Z,10.34
2019-05-26T04:32:36.571Z,10.54
2019-05-26T04:33:36.514Z,10.51
2019-05-26T04:34:36.484Z,10.59
2019-05-26T04:35:36.457Z,10.63
2019-05-26T04:36:36.456Z,10.68
2019-05-26T04:37:36.428Z,10.74
2019-05-26T04:38:36.364Z,10.76
2019-05-26T04:39:36.336Z,10.87
2019-05-26T04:40:36.307Z,10.84
2019-05-26T04:41:36.281Z,10.93
2019-05-26T04:42:36.387Z,11.00
2019-05-26T04:43:36.217Z,11.12
2019-05-26T04:44:36.210Z,11.19
2019-05-26T04:45:36.163Z,11.29
2019-05-26T04:46:36.130Z,11.40
2019-05-26T04:47:36.151Z,11.40
2019-05-26T04:48:36.092Z,11.51
2019-05-26T04:49:37.729Z,11.52
2019-05-26T04:50:36.014Z,11.51
2019-05-26T04:51:35.988Z,11.59
2019-05-26T04:52:36.082Z,11.73
2019-05-26T04:53:35.942Z,11.75
2019-05-26T04:54:35.904Z,11.97
2019-05-26T04:55:35.873Z,12.07
2019-05-26T04:56:35.856Z,12.20
2019-05-26T04:57:35.851Z,12.29
2019-05-26T04:58:35.786Z,12.39
2019-05-26T04:59:35.760Z,12.45
2019-05-26T05:00:35.799Z,12.49
2019-05-26T05:01:35.703Z,12.70
2019-05-26T05:02:35.700Z,12.79
2019-05-26T05:03:35.647Z,12.93
2019-05-26T05:04:35.623Z,13.03
2019-05-26T05:05:35.585Z,13.12
2019-05-26T05:06:35.574Z,13.12
2019-05-26T05:07:35.563Z,13.22
2019-05-26T05:08:35.504Z,13.20
2019-05-26T05:09:35.476Z,13.33
2019-05-26T05:10:42.215Z,13.30
2019-05-26T05:11:35.425Z,13.56
2019-05-26T05:12:35.428Z,13.67
2019-05-26T05:13:35.365Z,13.87
2019-05-26T05:14:35.352Z,13.87
2019-05-26T05:15:35.317Z,13.96
2019-05-26T05:16:35.287Z,14.17
2019-05-26T05:17:35.287Z,14.28
2019-05-26T05:18:35.240Z,14.44
2019-05-26T05:19:35.211Z,14.41
2019-05-26T05:20:35.183Z,14.70
2019-05-26T05:21:35.152Z,14.78
2019-05-26T05:22:35.167Z,15.02
2019-05-26T05:23:35.108Z,15.31
2019-05-26T05:24:35.079Z,15.46
2019-05-26T05:25:35.059Z,15.43
2019-05-26T05:26:35.025Z,15.54
2019-05-26T05:27:35.013Z,15.43
2019-05-26T05:28:34.971Z,15.39
2019-05-26T05:29:34.940Z,15.25
2019-05-26T05:30:34.914Z,15.15
2019-05-26T05:31:34.886Z,15.07
2019-05-26T05:32:34.890Z,15.03
2019-05-26T05:33:34.898Z,15.06
2019-05-26T05:34:34.808Z,15.09
2019-05-26T05:35:34.778Z,15.09
2019-05-26T05:36:34.835Z,15.07
2019-05-26T05:37:34.731Z,15.17
2019-05-26T05:38:34.772Z,15.14
2019-05-26T05:39:34.707Z,15.06
2019-05-26T05:40:34.675Z,15.00
2019-05-26T05:41:34.620Z,14.97
2019-05-26T05:42:34.605Z,14.85
2019-05-26T05:43:34.600Z,14.88
2019-05-26T05:44:34.546Z,14.81
2019-05-26T05:45:34.520Z,14.97
2019-05-26T05:46:34.490Z,14.99
2019-05-26T05:47:34.470Z,15.06
2019-05-26T05:48:34.468Z,15.07
2019-05-26T05:49:34.421Z,15.18
2019-05-26T05:50:34.389Z,15.24
2019-05-26T05:51:34.368Z,15.31
2019-05-26T05:52:34.338Z,15.31
2019-05-26T05:53:34.342Z,15.33
2019-05-26T05:54:34.355Z,15.35
2019-05-26T05:55:34.264Z,15.43
2019-05-26T05:56:34.233Z,15.46
2019-05-26T05:57:34.204Z,15.52
2019-05-26T05:58:34.233Z,15.58
2019-05-26T05:59:34.151Z,15.67
2019-05-26T06:00:34.129Z,15.73
2019-05-26T06:01:34.104Z,15.80
2019-05-26T06:02:34.074Z,15.80
2019-05-26T06:03:34.104Z,15.80
2019-05-26T06:04:34.028Z,15.88
2019-05-26T06:05:34.015Z,15.90
2019-05-26T06:06:33.969Z,15.94
2019-05-26T06:07:33.962Z,15.92
2019-05-26T06:08:33.950Z,15.94
2019-05-26T06:09:33.894Z,16.00
2019-05-26T06:10:33.874Z,16.01
2019-05-26T06:11:33.858Z,15.95
2019-05-26T06:12:33.820Z,15.98
2019-05-26T06:13:33.845Z,15.97
2019-05-26T06:14:33.809Z,15.94
2019-05-26T06:15:33.745Z,15.97
2019-05-26T06:16:33.719Z,16.09
2019-05-26T06:17:33.700Z,16.05
2019-05-26T06:18:33.703Z,16.15
2019-05-26T06:19:33.695Z,16.17
2019-05-26T06:20:33.629Z,16.24
2019-05-26T06:21:33.600Z,16.32
2019-05-26T06:22:33.588Z,16.49
2019-05-26T06:23:36.812Z,16.57
2019-05-26T06:24:33.524Z,16.74
2019-05-26T06:25:33.502Z,16.75
2019-05-26T06:26:33.471Z,16.78
2019-05-26T06:27:33.445Z,16.94
2019-05-26T06:28:33.478Z,17.02
2019-05-26T06:29:33.418Z,17.16
2019-05-26T06:30:33.366Z,17.19
2019-05-26T06:31:33.382Z,17.33
2019-05-26T06:32:33.319Z,17.46
2019-05-26T06:33:33.339Z,17.56
2019-05-26T06:34:33.285Z,17.79
2019-05-26T06:35:33.300Z,18.00
2019-05-26T06:36:33.221Z,18.13
2019-05-26T06:37:33.196Z,18.18
2019-05-26T06:38:33.195Z,18.28
2019-05-26T06:39:33.300Z,18.38
2019-05-26T06:40:33.127Z,18.56
2019-05-26T06:41:34.118Z,18.56
2019-05-26T06:42:33.073Z,18.68
2019-05-26T06:43:33.104Z,18.77
2019-05-26T06:44:33.031Z,19.02
2019-05-26T06:45:33.004Z,19.18
2019-05-26T06:46:32.985Z,19.30
2019-05-26T06:47:32.964Z,19.36
2019-05-26T06:48:32.965Z,19.44
2019-05-26T06:49:32.915Z,19.40
2019-05-26T06:50:32.889Z,19.27
2019-05-26T06:51:32.884Z,18.96
2019-05-26T06:52:32.844Z,18.96
2019-05-26T06:53:32.827Z,19.16
2019-05-26T06:54:32.830Z,19.30
2019-05-26T06:55:32.787Z,19.45
2019-05-26T06:56:32.761Z,19.51
2019-05-26T06:57:32.736Z,19.64
2019-05-26T06:58:32.715Z,19.49
2019-05-26T06:59:32.734Z,19.49
2019-05-26T07:00:32.687Z,19.44
2019-05-26T07:01:32.663Z,19.37
2019-05-26T07:02:32.618Z,19.36
2019-05-26T07:03:32.601Z,19.19
2019-05-26T07:04:32.606Z,19.31
2019-05-26T07:05:32.581Z,19.31
2019-05-26T07:06:32.535Z,19.44
2019-05-26T07:07:32.534Z,19.70
2019-05-26T07:08:32.510Z,19.79
2019-05-26T07:09:32.495Z,19.86
2019-05-26T07:10:32.449Z,20.03
2019-05-26T07:11:54.279Z,19.94
2019-05-26T07:12:32.413Z,19.79
2019-05-26T07:13:32.393Z,19.73
2019-05-26T07:14:32.397Z,19.71
2019-05-26T07:15:32.353Z,19.70
2019-05-26T07:16:37.983Z,19.52
2019-05-26T07:17:32.303Z,19.56
2019-05-26T07:18:32.273Z,19.69
2019-05-26T07:19:32.282Z,19.74
2019-05-26T07:20:32.259Z,19.81
2019-05-26T07:21:32.205Z,19.88
2019-05-26T07:22:32.190Z,19.85
2019-05-26T07:23:32.171Z,20.03
2019-05-26T07:24:32.171Z,20.09
2019-05-26T07:25:32.136Z,20.21
2019-05-26T07:26:32.101Z,20.14
2019-05-26T07:27:32.081Z,20.13
2019-05-26T07:28:32.060Z,20.07
2019-05-26T07:29:32.061Z,20.14
2019-05-26T07:30:32.018Z,20.21
2019-05-26T07:31:32.014Z,20.28
2019-05-26T07:32:31.991Z,20.37
2019-05-26T07:33:32.445Z,20.40
2019-05-26T07:34:31.951Z,20.34
2019-05-26T07:35:33.157Z,20.26
2019-05-26T07:36:31.924Z,20.25
2019-05-26T07:37:31.880Z,20.19
2019-05-26T07:38:31.856Z,20.19
2019-05-26T07:39:31.847Z,20.18
2019-05-26T07:40:31.804Z,20.18
2019-05-26T07:41:31.794Z,20.40
2019-05-26T07:42:31.756Z,20.50
2019-05-26T07:43:31.754Z,20.50
2019-05-26T07:44:31.756Z,20.44
2019-05-26T07:45:31.701Z,20.43
2019-05-26T07:46:31.668Z,20.56
2019-05-26T07:47:31.647Z,20.65
2019-05-26T07:48:35.570Z,20.69
2019-05-26T07:49:31.627Z,20.77
2019-05-26T07:50:31.593Z,20.74
2019-05-26T07:51:31.563Z,20.78
2019-05-26T07:52:31.551Z,20.81
2019-05-26T07:53:31.532Z,20.85
2019-05-26T07:54:31.527Z,20.81
2019-05-26T07:55:31.484Z,20.82
2019-05-26T07:56:31.493Z,20.77
2019-05-26T07:57:31.439Z,20.80
2019-05-26T07:58:31.422Z,20.82
2019-05-26T07:59:31.960Z,20.92
2019-05-26T08:00:31.385Z,21.06
2019-05-26T08:01:36.368Z,21.27
2019-05-26T08:02:31.340Z,21.17
2019-05-26T08:03:31.390Z,21.06
2019-05-26T08:04:31.343Z,20.95
2019-05-26T08:05:31.276Z,20.99
2019-05-26T08:06:32.262Z,21.03
2019-05-26T08:07:31.245Z,20.93
2019-05-26T08:08:31.210Z,20.75
2019-05-26T08:09:31.234Z,20.85
2019-05-26T08:10:31.176Z,20.84
2019-05-26T08:11:31.150Z,21.00
2019-05-26T08:12:31.172Z,20.90
2019-05-26T08:13:31.111Z,21.02
2019-05-26T08:14:31.088Z,20.93
2019-05-26T08:15:31.099Z,20.80
2019-05-26T08:16:31.605Z,20.72
2019-05-26T08:17:31.065Z,20.81
2019-05-26T08:18:31.007Z,20.69
2019-05-26T08:19:31.025Z,20.60
2019-05-26T08:20:30.991Z,20.70
2019-05-26T08:21:30.938Z,20.82
2019-05-26T08:22:30.932Z,20.81
2019-05-26T08:23:30.903Z,20.75
2019-05-26T08:24:30.883Z,20.74
2019-05-26T08:25:30.889Z,20.80
2019-05-26T08:26:30.845Z,20.60
2019-05-26T08:27:40.027Z,20.70
2019-05-26T08:28:30.797Z,20.84
2019-05-26T08:29:30.772Z,20.97
2019-05-26T08:30:30.790Z,21.11
2019-05-26T08:31:30.722Z,21.21
2019-05-26T08:32:30.777Z,21.22
2019-05-26T08:33:30.693Z,21.30
2019-05-26T08:34:30.701Z,21.15
2019-05-26T08:35:30.683Z,21.03
2019-05-26T08:36:30.655Z,20.99
2019-05-26T08:37:30.594Z,21.18
2019-05-26T08:38:30.580Z,21.33
2019-05-26T08:39:30.575Z,21.50
2019-05-26T08:40:39.064Z,21.46
2019-05-26T08:41:30.550Z,21.51
2019-05-26T08:42:43.877Z,21.20
2019-05-26T08:43:30.469Z,21.11
2019-05-26T08:44:30.451Z,21.07
2019-05-26T08:45:33.467Z,21.03
2019-05-26T08:46:40.074Z,20.90
2019-05-26T08:47:30.384Z,20.95
2019-05-26T08:48:30.397Z,21.09
2019-05-26T08:49:30.392Z,21.00
2019-05-26T08:50:33.950Z,21.07
2019-05-26T08:51:30.341Z,21.27
2019-05-26T08:52:30.292Z,21.25
2019-05-26T08:53:30.261Z,21.30
2019-05-26T08:54:40.029Z,21.43
2019-05-26T08:55:30.247Z,21.60
2019-05-26T08:56:30.217Z,21.72
2019-05-26T08:57:30.170Z,21.55
2019-05-26T08:58:30.170Z,21.60
2019-05-26T08:59:30.134Z,21.58
2019-05-26T09:00:30.671Z,21.66
2019-05-26T09:01:30.093Z,21.50
2019-05-26T09:02:30.066Z,21.62
2019-05-26T09:03:30.053Z,21.75
2019-05-26T09:04:30.025Z,21.77
2019-05-26T09:05:30.032Z,21.96
2019-05-26T09:06:29.986Z,22.04
2019-05-26T09:07:39.144Z,22.28
2019-05-26T09:08:29.941Z,22.44
2019-05-26T09:09:29.941Z,22.22
2019-05-26T09:10:29.993Z,22.45
2019-05-26T09:11:29.879Z,22.48
2019-05-26T09:12:29.860Z,22.45
2019-05-26T09:13:36.899Z,21.99
2019-05-26T09:14:29.826Z,22.17
2019-05-26T09:15:29.863Z,22.13
2019-05-26T09:16:29.778Z,22.17
2019-05-26T09:17:29.781Z,22.47
2019-05-26T09:18:29.737Z,22.55
2019-05-26T09:19:29.719Z,22.63
2019-05-26T09:20:29.938Z,22.59
2019-05-26T09:21:29.855Z,22.69
2019-05-26T09:22:29.660Z,22.69
2019-05-26T09:23:29.632Z,22.84
2019-05-26T09:24:29.617Z,22.98
2019-05-26T09:25:29.621Z,23.00
2019-05-26T09:26:29.609Z,23.15
2019-05-26T09:27:29.554Z,23.10
2019-05-26T09:28:30.124Z,23.06
2019-05-26T09:29:29.518Z,22.94
2019-05-26T09:30:29.573Z,22.70
2019-05-26T09:31:29.503Z,22.47
2019-05-26T09:32:29.490Z,22.47
2019-05-26T09:33:29.451Z,22.44
2019-05-26T09:34:29.412Z,22.57
2019-05-26T09:35:29.399Z,22.88
2019-05-26T09:36:29.430Z,22.94
2019-05-26T09:37:29.375Z,22.81
2019-05-26T09:38:29.340Z,22.68
2019-05-26T09:39:29.318Z,22.63
2019-05-26T09:40:38.719Z,22.38
2019-05-26T09:41:29.319Z,22.41
2019-05-26T09:42:29.253Z,22.23
2019-05-26T09:43:29.225Z,22.45
2019-05-26T09:44:29.247Z,22.44
2019-05-26T09:45:29.187Z,22.53
2019-05-26T09:46:29.197Z,22.70
2019-05-26T09:47:29.188Z,22.68
2019-05-26T09:48:29.173Z,22.59
2019-05-26T09:49:29.126Z,22.76
2019-05-26T09:50:29.189Z,22.99
2019-05-26T09:51:29.097Z,23.06
2019-05-26T09:52:29.050Z,23.24
2019-05-26T09:53:29.029Z,23.27
2019-05-26T09:54:29.015Z,23.40
2019-05-26T09:55:29.050Z,23.50
2019-05-26T09:56:29.264Z,23.71
2019-05-26T09:57:28.955Z,23.77
2019-05-26T09:58:28.947Z,23.71
2019-05-26T09:59:28.978Z,23.61
2019-05-26T10:00:28.916Z,23.69
2019-05-26T10:01:28.903Z,23.62
2019-05-26T10:02:28.864Z,23.69
2019-05-26T10:03:28.837Z,23.81
2019-05-26T10:04:28.816Z,23.81
2019-05-26T10:05:28.801Z,23.84
2019-05-26T10:06:28.807Z,23.81
2019-05-26T10:07:28.763Z,23.93
2019-05-26T10:08:28.746Z,23.95
2019-05-26T10:09:28.719Z,24.11
2019-05-26T10:10:28.713Z,24.03
2019-05-26T10:11:28.730Z,24.23
2019-05-26T10:12:28.709Z,24.18
2019-05-26T10:13:31.807Z,24.24
2019-05-26T10:14:28.639Z,24.18
2019-05-26T10:15:28.611Z,24.11
2019-05-26T10:16:28.619Z,24.06
2019-05-26T10:17:28.637Z,23.98
2019-05-26T10:18:28.550Z,24.01
2019-05-26T10:19:28.532Z,23.88
2019-05-26T10:20:28.514Z,23.63
2019-05-26T10:21:31.657Z,23.68
2019-05-26T10:22:28.474Z,23.76
2019-05-26T10:23:28.460Z,23.81
2019-05-26T10:24:28.447Z,23.83
2019-05-26T10:25:28.430Z,23.71
2019-05-26T10:26:28.493Z,23.63
2019-05-26T10:27:28.383Z,23.41
2019-05-26T10:28:28.361Z,23.31
2019-05-26T10:29:28.343Z,23.34
2019-05-26T10:30:28.323Z,23.40
2019-05-26T10:31:28.329Z,23.21
2019-05-26T10:32:28.292Z,23.27
2019-05-26T10:33:28.269Z,23.54
2019-05-26T10:34:28.248Z,23.48
2019-05-26T10:35:28.233Z,23.54
2019-05-26T10:36:28.233Z,23.62
2019-05-26T10:37:28.208Z,23.54
2019-05-26T10:38:28.173Z,23.56
2019-05-26T10:39:28.149Z,23.66
2019-05-26T10:40:28.142Z,23.48
2019-05-26T10:41:28.140Z,23.50
2019-05-26T10:42:28.103Z,23.71
2019-05-26T10:43:28.075Z,23.76
2019-05-26T10:44:28.052Z,23.80
2019-05-26T10:45:28.081Z,23.93
2019-05-26T10:46:28.034Z,24.10
2019-05-26T10:47:28.102Z,24.29
2019-05-26T10:48:27.976Z,24.20
2019-05-26T10:49:27.963Z,24.23
2019-05-26T10:50:27.941Z,23.93
2019-05-26T10:51:27.986Z,23.93
2019-05-26T10:52:27.938Z,23.86
2019-05-26T10:53:27.887Z,23.93
2019-05-26T10:54:28.674Z,23.86
2019-05-26T10:55:27.858Z,23.32
2019-05-26T10:56:27.828Z,23.25
2019-05-26T10:57:27.834Z,23.51
2019-05-26T10:58:27.789Z,23.77
2019-05-26T10:59:27.771Z,24.08
2019-05-26T11:00:27.755Z,24.11
2019-05-26T11:01:27.741Z,24.23
2019-05-26T11:02:27.736Z,23.86
2019-05-26T11:03:27.697Z,23.77
2019-05-26T11:04:27.679Z,23.99
2019-05-26T11:05:27.657Z,24.28
2019-05-26T11:06:27.660Z,24.26
2019-05-26T11:07:27.787Z,24.23
2019-05-26T11:08:27.607Z,24.14
2019-05-26T11:09:27.700Z,24.10
2019-05-26T11:10:27.569Z,24.16
2019-05-26T11:11:27.546Z,24.36
2019-05-26T11:12:27.570Z,24.51
2019-05-26T11:13:27.512Z,24.70
2019-05-26T11:14:27.494Z,24.77
2019-05-26T11:15:27.474Z,24.92
2019-05-26T11:16:27.453Z,24.91
2019-05-26T11:17:27.455Z,24.74
2019-05-26T11:18:27.415Z,24.57
2019-05-26T11:20:27.384Z,24.51
2019-05-26T11:21:27.372Z,24.47
2019-05-26T11:22:33.176Z,24.43
2019-05-26T11:23:27.337Z,24.23
2019-05-26T11:24:27.316Z,24.33
2019-05-26T11:25:27.294Z,24.42
2019-05-26T11:26:27.284Z,24.36
2019-05-26T11:27:28.180Z,24.40
2019-05-26T11:28:27.240Z,24.58
2019-05-26T11:29:27.227Z,24.63
2019-05-26T11:30:27.194Z,24.57
2019-05-26T11:31:27.174Z,24.51
2019-05-26T11:32:27.214Z,24.58
2019-05-26T11:33:27.146Z,24.51
2019-05-26T11:34:27.115Z,24.73
2019-05-26T11:35:27.100Z,25.01
2019-05-26T11:36:27.093Z,25.14
2019-05-26T11:37:27.088Z,25.29
2019-05-26T11:38:27.046Z,25.03
2019-05-26T11:39:27.023Z,25.06
2019-05-26T11:40:27.062Z,25.23
2019-05-26T11:41:26.997Z,25.29
2019-05-26T11:42:27.004Z,25.23
2019-05-26T11:43:26.952Z,25.01
2019-05-26T11:44:26.942Z,25.14
2019-05-26T11:45:26.927Z,25.33
2019-05-26T11:46:26.902Z,25.54
2019-05-26T11:47:26.939Z,25.51
2019-05-26T11:48:26.864Z,25.55
2019-05-26T11:49:26.846Z,25.43
2019-05-26T11:50:26.857Z,25.07
2019-05-26T11:51:26.851Z,25.22
2019-05-26T11:52:26.819Z,25.14
2019-05-26T11:53:26.828Z,25.17
2019-05-26T11:54:26.777Z,25.22
2019-05-26T11:55:27.872Z,25.53
2019-05-26T11:56:26.725Z,25.51
2019-05-26T11:57:26.733Z,25.59
2019-05-26T11:58:26.693Z,25.60
2019-05-26T11:59:26.674Z,25.63
2019-05-26T12:00:26.659Z,25.47
2019-05-26T12:01:26.709Z,25.22
2019-05-26T12:02:26.617Z,24.99
2019-05-26T12:03:26.628Z,25.16
2019-05-26T12:04:26.584Z,24.95
2019-05-26T12:05:26.562Z,24.92
2019-05-26T12:06:26.569Z,24.96
2019-05-26T12:07:26.570Z,25.17
2019-05-26T12:08:26.812Z,25.44
2019-05-26T12:09:26.544Z,25.54
2019-05-26T12:10:26.478Z,25.70
2019-05-26T12:11:26.465Z,25.66
2019-05-26T12:12:26.447Z,25.60
2019-05-26T12:13:26.454Z,25.38
2019-05-26T12:14:34.765Z,25.11
2019-05-26T12:15:26.458Z,25.06
2019-05-26T12:16:28.847Z,25.07
2019-05-26T12:17:26.366Z,25.16
2019-05-26T12:18:26.368Z,25.23
2019-05-26T12:19:26.354Z,25.16
2019-05-26T12:20:26.321Z,25.06
2019-05-26T12:21:26.286Z,25.14
2019-05-26T12:22:26.268Z,25.35
2019-05-26T12:23:26.282Z,25.40
2019-05-26T12:24:26.233Z,25.46
2019-05-26T12:25:26.224Z,25.59
2019-05-26T12:26:26.200Z,25.73
2019-05-26T12:27:26.188Z,25.91
2019-05-26T12:28:26.185Z,26.10
2019-05-26T12:29:26.151Z,26.13
2019-05-26T12:30:26.122Z,26.09
2019-05-26T12:31:26.139Z,26.03
2019-05-26T12:32:26.092Z,26.10
2019-05-26T12:33:26.109Z,25.93
2019-05-26T12:34:26.052Z,25.68
2019-05-26T12:35:26.035Z,25.62
2019-05-26T12:36:26.014Z,25.54
2019-05-26T12:37:26.008Z,25.47
2019-05-26T12:38:26.039Z,25.38
2019-05-26T12:39:25.972Z,25.31
2019-05-26T12:40:25.961Z,25.29
2019-05-26T12:41:25.930Z,25.26
2019-05-26T12:42:25.938Z,25.23
2019-05-26T12:43:25.922Z,25.28
2019-05-26T12:44:25.876Z,25.38
2019-05-26T12:45:25.885Z,25.41
2019-05-26T12:46:26.740Z,25.68
2019-05-26T12:47:25.847Z,25.68
2019-05-26T12:48:25.848Z,25.51
2019-05-26T12:49:27.916Z,25.68
2019-05-26T12:50:25.801Z,25.54
2019-05-26T12:51:25.755Z,25.43
2019-05-26T12:52:25.751Z,25.21
2019-05-26T12:53:25.760Z,25.28
2019-05-26T12:54:25.727Z,25.31
2019-05-26T12:55:25.696Z,25.44
2019-05-26T12:56:25.675Z,25.54
2019-05-26T12:57:25.652Z,25.63
2019-05-26T12:58:25.638Z,25.54
2019-05-26T12:59:25.715Z,25.68
2019-05-26T13:00:25.599Z,25.81
2019-05-26T13:01:25.602Z,25.95
2019-05-26T13:02:25.559Z,25.91